sensor_id;sensor_type;location;lat;lon;timestamp;P1;durP1;ratioP1;P2;durP2;ratioP2
21979;SDS011;11154;48.558;9.234;2023-05-02T00:00:32;3.00;;;2.70;;
21979;SDS011;11154;48.558;9.234;2023-05-02T00:02:35;3.45;;;2.95;;
21979;SDS011;11154;48.558;9.234;2023-05-02T00:04:37;2.70;;;2.50;;
21979;SDS011;11154;48.558;9.234;2023-05-02T00:06:39;4.20;;;3.10;;
21979;SDS011;11154;48.558;9.234;2023-05-02T00:08:43;4.82;;;3.40;;
21979;SDS011;11154;48.558;9.234;2023-05-02T00:10:45;4.75;;;2.88;;
21979;SDS011;11154;48.558;9.234;2023-05-02T00:12:46;4.60;;;3.35;;
21979;SDS011;11154;48.558;9.234;2023-05-02T00:14:48;3.22;;;2.92;;
21979;SDS011;11154;48.558;9.234;2023-05-02T00:16:50;3.47;;;3.17;;
21979;SDS011;11154;48.558;9.234;2023-05-02T00:18:51;4.10;;;3.20;;
21979;SDS011;11154;48.558;9.234;2023-05-02T00:20:54;4.72;;;3.10;;
21979;SDS011;11154;48.558;9.234;2023-05-02T00:22:55;3.25;;;2.65;;
21979;SDS011;11154;48.558;9.234;2023-05-02T00:24:59;4.40;;;3.20;;
21979;SDS011;11154;48.558;9.234;2023-05-02T00:27:00;3.65;;;2.83;;
21979;SDS011;11154;48.558;9.234;2023-05-02T00:29:03;6.00;;;3.00;;
21979;SDS011;11154;48.558;9.234;2023-05-02T00:31:05;3.28;;;2.75;;
21979;SDS011;11154;48.558;9.234;2023-05-02T00:33:07;3.65;;;3.35;;
21979;SDS011;11154;48.558;9.234;2023-05-02T00:35:08;4.13;;;2.83;;
21979;SDS011;11154;48.558;9.234;2023-05-02T00:37:11;2.92;;;2.63;;
21979;SDS011;11154;48.558;9.234;2023-05-02T00:39:13;3.67;;;2.90;;
21979;SDS011;11154;48.558;9.234;2023-05-02T00:41:16;2.97;;;2.67;;
21979;SDS011;11154;48.558;9.234;2023-05-02T00:43:18;4.55;;;3.30;;
21979;SDS011;11154;48.558;9.234;2023-05-02T00:45:20;5.45;;;4.32;;
21979;SDS011;11154;48.558;9.234;2023-05-02T00:47:22;4.63;;;3.80;;
21979;SDS011;11154;48.558;9.234;2023-05-02T00:49:24;2.80;;;2.60;;
21979;SDS011;11154;48.558;9.234;2023-05-02T00:51:25;3.83;;;2.90;;
21979;SDS011;11154;48.558;9.234;2023-05-02T00:53:27;3.08;;;2.65;;
21979;SDS011;11154;48.558;9.234;2023-05-02T00:55:30;2.80;;;2.60;;
21979;SDS011;11154;48.558;9.234;2023-05-02T00:57:34;3.35;;;2.70;;
21979;SDS011;11154;48.558;9.234;2023-05-02T00:59:36;2.83;;;2.63;;
21979;SDS011;11154;48.558;9.234;2023-05-02T01:01:39;8.40;;;2.65;;
21979;SDS011;11154;48.558;9.234;2023-05-02T01:03:54;3.03;;;2.83;;
21979;SDS011;11154;48.558;9.234;2023-05-02T01:06:07;2.70;;;2.50;;
21979;SDS011;11154;48.558;9.234;2023-05-02T01:08:18;3.47;;;2.50;;
21979;SDS011;11154;48.558;9.234;2023-05-02T01:10:29;4.63;;;2.75;;
21979;SDS011;11154;48.558;9.234;2023-05-02T01:12:46;2.70;;;2.50;;
21979;SDS011;11154;48.558;9.234;2023-05-02T01:14:54;3.92;;;2.78;;
21979;SDS011;11154;48.558;9.234;2023-05-02T01:16:59;2.70;;;2.50;;
21979;SDS011;11154;48.558;9.234;2023-05-02T01:19:04;3.38;;;2.90;;
21979;SDS011;11154;48.558;9.234;2023-05-02T01:21:10;2.80;;;2.58;;
21979;SDS011;11154;48.558;9.234;2023-05-02T01:23:14;4.40;;;2.80;;
21979;SDS011;11154;48.558;9.234;2023-05-02T01:25:24;8.32;;;2.83;;
21979;SDS011;11154;48.558;9.234;2023-05-02T01:27:33;5.85;;;2.78;;
21979;SDS011;11154;48.558;9.234;2023-05-02T01:29:45;3.38;;;2.75;;
21979;SDS011;11154;48.558;9.234;2023-05-02T01:31:51;3.40;;;3.00;;
21979;SDS011;11154;48.558;9.234;2023-05-02T01:33:53;2.63;;;2.42;;
21979;SDS011;11154;48.558;9.234;2023-05-02T01:35:57;3.47;;;2.80;;
21979;SDS011;11154;48.558;9.234;2023-05-02T01:38:02;2.63;;;2.42;;
21979;SDS011;11154;48.558;9.234;2023-05-02T01:40:06;2.63;;;2.42;;
21979;SDS011;11154;48.558;9.234;2023-05-02T01:42:10;2.45;;;2.25;;
21979;SDS011;11154;48.558;9.234;2023-05-02T01:44:13;2.67;;;2.30;;
21979;SDS011;11154;48.558;9.234;2023-05-02T01:46:18;3.45;;;2.53;;
21979;SDS011;11154;48.558;9.234;2023-05-02T01:48:22;3.55;;;2.58;;
21979;SDS011;11154;48.558;9.234;2023-05-02T01:50:27;2.78;;;2.50;;
21979;SDS011;11154;48.558;9.234;2023-05-02T01:52:29;2.70;;;2.30;;
21979;SDS011;11154;48.558;9.234;2023-05-02T01:54:32;4.75;;;2.78;;
21979;SDS011;11154;48.558;9.234;2023-05-02T01:56:37;3.40;;;2.70;;
21979;SDS011;11154;48.558;9.234;2023-05-02T01:58:40;2.85;;;2.58;;
21979;SDS011;11154;48.558;9.234;2023-05-02T02:00:43;5.20;;;2.78;;
21979;SDS011;11154;48.558;9.234;2023-05-02T02:02:47;3.53;;;2.95;;
21979;SDS011;11154;48.558;9.234;2023-05-02T02:04:51;6.05;;;2.95;;
21979;SDS011;11154;48.558;9.234;2023-05-02T02:06:54;3.28;;;2.92;;
21979;SDS011;11154;48.558;9.234;2023-05-02T02:09:00;3.42;;;2.70;;
21979;SDS011;11154;48.558;9.234;2023-05-02T02:11:03;3.08;;;2.78;;
21979;SDS011;11154;48.558;9.234;2023-05-02T02:13:12;4.68;;;2.70;;
21979;SDS011;11154;48.558;9.234;2023-05-02T02:15:18;3.28;;;2.90;;
21979;SDS011;11154;48.558;9.234;2023-05-02T02:17:26;2.85;;;2.65;;
21979;SDS011;11154;48.558;9.234;2023-05-02T02:19:35;2.72;;;2.45;;
21979;SDS011;11154;48.558;9.234;2023-05-02T02:21:40;4.03;;;2.50;;
21979;SDS011;11154;48.558;9.234;2023-05-02T02:23:43;4.35;;;2.70;;
21979;SDS011;11154;48.558;9.234;2023-05-02T02:25:49;4.82;;;2.85;;
21979;SDS011;11154;48.558;9.234;2023-05-02T02:27:52;3.00;;;2.70;;
21979;SDS011;11154;48.558;9.234;2023-05-02T02:29:54;3.63;;;3.00;;
21979;SDS011;11154;48.558;9.234;2023-05-02T02:31:56;3.05;;;2.72;;
21979;SDS011;11154;48.558;9.234;2023-05-02T02:33:58;4.15;;;3.40;;
21979;SDS011;11154;48.558;9.234;2023-05-02T02:36:03;3.10;;;2.80;;
21979;SDS011;11154;48.558;9.234;2023-05-02T02:38:10;4.00;;;2.55;;
21979;SDS011;11154;48.558;9.234;2023-05-02T02:40:19;3.63;;;2.70;;
21979;SDS011;11154;48.558;9.234;2023-05-02T02:42:26;2.95;;;2.65;;
21979;SDS011;11154;48.558;9.234;2023-05-02T02:44:38;3.45;;;2.67;;
21979;SDS011;11154;48.558;9.234;2023-05-02T02:46:48;2.90;;;2.67;;
21979;SDS011;11154;48.558;9.234;2023-05-02T02:48:56;2.97;;;2.67;;
21979;SDS011;11154;48.558;9.234;2023-05-02T02:51:12;4.53;;;3.10;;
21979;SDS011;11154;48.558;9.234;2023-05-02T02:53:24;4.05;;;2.50;;
21979;SDS011;11154;48.558;9.234;2023-05-02T02:55:30;4.15;;;2.90;;
21979;SDS011;11154;48.558;9.234;2023-05-02T02:57:38;7.18;;;2.90;;
21979;SDS011;11154;48.558;9.234;2023-05-02T02:59:50;3.75;;;3.38;;
21979;SDS011;11154;48.558;9.234;2023-05-02T03:02:00;4.05;;;3.65;;
21979;SDS011;11154;48.558;9.234;2023-05-02T03:04:06;4.32;;;3.92;;
21979;SDS011;11154;48.558;9.234;2023-05-02T03:06:09;5.00;;;4.50;;
21979;SDS011;11154;48.558;9.234;2023-05-02T03:08:13;5.10;;;4.60;;
21979;SDS011;11154;48.558;9.234;2023-05-02T03:10:14;4.80;;;4.30;;
21979;SDS011;11154;48.558;9.234;2023-05-02T03:12:16;4.78;;;4.38;;
21979;SDS011;11154;48.558;9.234;2023-05-02T03:14:18;3.92;;;3.60;;
21979;SDS011;11154;48.558;9.234;2023-05-02T03:16:30;5.40;;;4.90;;
21979;SDS011;11154;48.558;9.234;2023-05-02T03:18:34;4.50;;;4.10;;
21979;SDS011;11154;48.558;9.234;2023-05-02T03:20:36;5.30;;;4.80;;
21979;SDS011;11154;48.558;9.234;2023-05-02T03:22:38;4.65;;;4.20;;
21979;SDS011;11154;48.558;9.234;2023-05-02T03:24:41;4.40;;;4.00;;
21979;SDS011;11154;48.558;9.234;2023-05-02T03:26:43;4.38;;;3.97;;
21979;SDS011;11154;48.558;9.234;2023-05-02T03:28:46;3.15;;;2.85;;
21979;SDS011;11154;48.558;9.234;2023-05-02T03:30:47;3.28;;;3.00;;
21979;SDS011;11154;48.558;9.234;2023-05-02T03:32:49;3.95;;;3.63;;
21979;SDS011;11154;48.558;9.234;2023-05-02T03:34:51;2.85;;;2.65;;
21979;SDS011;11154;48.558;9.234;2023-05-02T03:36:57;3.75;;;3.45;;
21979;SDS011;11154;48.558;9.234;2023-05-02T03:38:59;3.90;;;3.50;;
21979;SDS011;11154;48.558;9.234;2023-05-02T03:41:02;3.55;;;3.25;;
21979;SDS011;11154;48.558;9.234;2023-05-02T03:43:04;3.60;;;3.30;;
21979;SDS011;11154;48.558;9.234;2023-05-02T03:45:06;4.82;;;3.97;;
21979;SDS011;11154;48.558;9.234;2023-05-02T03:47:08;7.00;;;3.55;;
21979;SDS011;11154;48.558;9.234;2023-05-02T03:49:12;4.43;;;3.92;;
21979;SDS011;11154;48.558;9.234;2023-05-02T03:51:13;4.28;;;3.88;;
21979;SDS011;11154;48.558;9.234;2023-05-02T03:53:15;5.18;;;3.63;;
21979;SDS011;11154;48.558;9.234;2023-05-02T03:55:17;3.80;;;3.45;;
21979;SDS011;11154;48.558;9.234;2023-05-02T03:57:20;3.90;;;3.50;;
21979;SDS011;11154;48.558;9.234;2023-05-02T03:59:22;4.90;;;3.47;;
21979;SDS011;11154;48.558;9.234;2023-05-02T04:01:23;4.93;;;3.80;;
21979;SDS011;11154;48.558;9.234;2023-05-02T04:03:25;3.70;;;3.40;;
21979;SDS011;11154;48.558;9.234;2023-05-02T04:05:27;4.90;;;3.92;;
21979;SDS011;11154;48.558;9.234;2023-05-02T04:07:29;4.18;;;3.67;;
21979;SDS011;11154;48.558;9.234;2023-05-02T04:09:31;4.28;;;3.88;;
21979;SDS011;11154;48.558;9.234;2023-05-02T04:11:32;4.10;;;3.70;;
21979;SDS011;11154;48.558;9.234;2023-05-02T04:13:35;4.30;;;3.90;;
21979;SDS011;11154;48.558;9.234;2023-05-02T04:15:37;4.68;;;4.20;;
21979;SDS011;11154;48.558;9.234;2023-05-02T04:17:39;3.70;;;3.40;;
21979;SDS011;11154;48.558;9.234;2023-05-02T04:19:41;3.95;;;3.55;;
21979;SDS011;11154;48.558;9.234;2023-05-02T04:21:43;3.67;;;3.38;;
21979;SDS011;11154;48.558;9.234;2023-05-02T04:23:45;4.45;;;4.05;;
21979;SDS011;11154;48.558;9.234;2023-05-02T04:25:50;5.30;;;3.92;;
21979;SDS011;11154;48.558;9.234;2023-05-02T04:27:53;5.07;;;3.78;;
21979;SDS011;11154;48.558;9.234;2023-05-02T04:29:56;4.03;;;3.63;;
21979;SDS011;11154;48.558;9.234;2023-05-02T04:31:57;4.32;;;3.72;;
21979;SDS011;11154;48.558;9.234;2023-05-02T04:33:59;4.35;;;3.95;;
21979;SDS011;11154;48.558;9.234;2023-05-02T04:36:01;5.13;;;4.38;;
21979;SDS011;11154;48.558;9.234;2023-05-02T04:38:02;4.22;;;3.80;;
21979;SDS011;11154;48.558;9.234;2023-05-02T04:40:05;4.18;;;3.63;;
21979;SDS011;11154;48.558;9.234;2023-05-02T04:42:09;5.90;;;3.60;;
21979;SDS011;11154;48.558;9.234;2023-05-02T04:44:11;4.47;;;3.70;;
21979;SDS011;11154;48.558;9.234;2023-05-02T04:46:14;5.60;;;3.28;;
21979;SDS011;11154;48.558;9.234;2023-05-02T04:48:17;3.58;;;3.28;;
21979;SDS011;11154;48.558;9.234;2023-05-02T04:50:20;4.45;;;3.35;;
21979;SDS011;11154;48.558;9.234;2023-05-02T04:52:22;4.30;;;3.60;;
21979;SDS011;11154;48.558;9.234;2023-05-02T04:54:24;3.47;;;3.17;;
21979;SDS011;11154;48.558;9.234;2023-05-02T04:56:25;3.67;;;3.20;;
21979;SDS011;11154;48.558;9.234;2023-05-02T04:58:27;3.67;;;3.22;;
21979;SDS011;11154;48.558;9.234;2023-05-02T05:00:29;3.88;;;3.55;;
21979;SDS011;11154;48.558;9.234;2023-05-02T05:02:32;4.22;;;3.83;;
21979;SDS011;11154;48.558;9.234;2023-05-02T05:04:34;3.72;;;3.28;;
21979;SDS011;11154;48.558;9.234;2023-05-02T05:06:35;7.68;;;4.10;;
21979;SDS011;11154;48.558;9.234;2023-05-02T05:08:37;5.90;;;3.60;;
21979;SDS011;11154;48.558;9.234;2023-05-02T05:10:39;4.43;;;4.03;;
21979;SDS011;11154;48.558;9.234;2023-05-02T05:12:41;4.65;;;4.25;;
21979;SDS011;11154;48.558;9.234;2023-05-02T05:14:42;4.95;;;3.78;;
21979;SDS011;11154;48.558;9.234;2023-05-02T05:16:44;4.13;;;3.72;;
21979;SDS011;11154;48.558;9.234;2023-05-02T05:18:47;4.30;;;3.90;;
21979;SDS011;11154;48.558;9.234;2023-05-02T05:20:49;4.00;;;3.70;;
21979;SDS011;11154;48.558;9.234;2023-05-02T05:22:50;5.35;;;3.70;;
21979;SDS011;11154;48.558;9.234;2023-05-02T05:24:52;4.80;;;4.40;;
21979;SDS011;11154;48.558;9.234;2023-05-02T05:26:54;4.82;;;4.07;;
21979;SDS011;11154;48.558;9.234;2023-05-02T05:28:56;4.35;;;3.92;;
21979;SDS011;11154;48.558;9.234;2023-05-02T05:31:03;6.15;;;4.03;;
21979;SDS011;11154;48.558;9.234;2023-05-02T05:33:05;4.00;;;3.60;;
21979;SDS011;11154;48.558;9.234;2023-05-02T05:35:09;4.30;;;3.90;;
21979;SDS011;11154;48.558;9.234;2023-05-02T05:37:11;6.47;;;5.28;;
21979;SDS011;11154;48.558;9.234;2023-05-02T05:39:13;5.75;;;3.95;;
21979;SDS011;11154;48.558;9.234;2023-05-02T05:41:14;6.68;;;3.50;;
21979;SDS011;11154;48.558;9.234;2023-05-02T05:43:16;5.35;;;3.53;;
21979;SDS011;11154;48.558;9.234;2023-05-02T05:45:17;3.58;;;3.20;;
21979;SDS011;11154;48.558;9.234;2023-05-02T05:47:19;4.43;;;3.30;;
21979;SDS011;11154;48.558;9.234;2023-05-02T05:49:22;3.90;;;3.50;;
21979;SDS011;11154;48.558;9.234;2023-05-02T05:51:25;4.45;;;3.70;;
21979;SDS011;11154;48.558;9.234;2023-05-02T05:53:27;4.75;;;3.72;;
21979;SDS011;11154;48.558;9.234;2023-05-02T05:55:29;5.07;;;3.70;;
21979;SDS011;11154;48.558;9.234;2023-05-02T05:57:30;4.00;;;3.60;;
21979;SDS011;11154;48.558;9.234;2023-05-02T05:59:33;4.40;;;3.97;;
21979;SDS011;11154;48.558;9.234;2023-05-02T06:01:35;5.68;;;4.20;;
21979;SDS011;11154;48.558;9.234;2023-05-02T06:03:37;4.32;;;3.92;;
21979;SDS011;11154;48.558;9.234;2023-05-02T06:05:39;4.25;;;3.85;;
21979;SDS011;11154;48.558;9.234;2023-05-02T06:07:42;6.32;;;4.28;;
21979;SDS011;11154;48.558;9.234;2023-05-02T06:09:44;4.10;;;3.70;;
21979;SDS011;11154;48.558;9.234;2023-05-02T06:11:45;4.78;;;4.18;;
21979;SDS011;11154;48.558;9.234;2023-05-02T06:13:47;5.97;;;4.47;;
21979;SDS011;11154;48.558;9.234;2023-05-02T06:15:49;5.15;;;4.65;;
21979;SDS011;11154;48.558;9.234;2023-05-02T06:17:51;4.63;;;4.22;;
21979;SDS011;11154;48.558;9.234;2023-05-02T06:19:52;5.05;;;4.55;;
21979;SDS011;11154;48.558;9.234;2023-05-02T06:21:54;5.88;;;4.35;;
21979;SDS011;11154;48.558;9.234;2023-05-02T06:23:57;5.90;;;4.72;;
21979;SDS011;11154;48.558;9.234;2023-05-02T06:25:59;6.45;;;4.75;;
21979;SDS011;11154;48.558;9.234;2023-05-02T06:28:02;5.07;;;4.57;;
21979;SDS011;11154;48.558;9.234;2023-05-02T06:30:04;9.00;;;4.95;;
21979;SDS011;11154;48.558;9.234;2023-05-02T06:32:06;5.63;;;4.57;;
21979;SDS011;11154;48.558;9.234;2023-05-02T06:34:09;5.55;;;4.38;;
21979;SDS011;11154;48.558;9.234;2023-05-02T06:36:10;6.35;;;4.60;;
21979;SDS011;11154;48.558;9.234;2023-05-02T06:38:12;5.07;;;4.57;;
21979;SDS011;11154;48.558;9.234;2023-05-02T06:40:18;5.57;;;4.55;;
21979;SDS011;11154;48.558;9.234;2023-05-02T06:42:20;6.25;;;4.55;;
21979;SDS011;11154;48.558;9.234;2023-05-02T06:44:21;5.00;;;4.40;;
21979;SDS011;11154;48.558;9.234;2023-05-02T06:46:26;6.97;;;4.78;;
21979;SDS011;11154;48.558;9.234;2023-05-02T06:48:29;5.72;;;4.38;;
21979;SDS011;11154;48.558;9.234;2023-05-02T06:50:30;7.07;;;4.68;;
21979;SDS011;11154;48.558;9.234;2023-05-02T06:52:32;5.65;;;4.70;;
21979;SDS011;11154;48.558;9.234;2023-05-02T06:54:34;4.88;;;4.38;;
21979;SDS011;11154;48.558;9.234;2023-05-02T06:56:37;4.60;;;4.15;;
21979;SDS011;11154;48.558;9.234;2023-05-02T06:58:39;6.32;;;4.50;;
21979;SDS011;11154;48.558;9.234;2023-05-02T07:00:40;5.30;;;4.28;;
21979;SDS011;11154;48.558;9.234;2023-05-02T07:02:43;5.95;;;4.50;;
21979;SDS011;11154;48.558;9.234;2023-05-02T07:04:44;6.65;;;4.28;;
21979;SDS011;11154;48.558;9.234;2023-05-02T07:06:46;7.03;;;4.72;;
21979;SDS011;11154;48.558;9.234;2023-05-02T07:08:48;6.57;;;4.45;;
21979;SDS011;11154;48.558;9.234;2023-05-02T07:10:50;4.90;;;4.40;;
21979;SDS011;11154;48.558;9.234;2023-05-02T07:12:53;4.50;;;4.10;;
21979;SDS011;11154;48.558;9.234;2023-05-02T07:14:55;5.22;;;4.40;;
21979;SDS011;11154;48.558;9.234;2023-05-02T07:16:57;5.50;;;3.97;;
21979;SDS011;11154;48.558;9.234;2023-05-02T07:18:58;5.82;;;4.20;;
21979;SDS011;11154;48.558;9.234;2023-05-02T07:21:00;6.03;;;4.45;;
21979;SDS011;11154;48.558;9.234;2023-05-02T07:23:02;6.00;;;4.60;;
21979;SDS011;11154;48.558;9.234;2023-05-02T07:25:04;5.47;;;4.80;;
21979;SDS011;11154;48.558;9.234;2023-05-02T07:27:07;7.13;;;4.50;;
21979;SDS011;11154;48.558;9.234;2023-05-02T07:29:11;6.30;;;4.72;;
21979;SDS011;11154;48.558;9.234;2023-05-02T07:31:12;5.55;;;4.72;;
21979;SDS011;11154;48.558;9.234;2023-05-02T07:33:14;6.65;;;4.32;;
21979;SDS011;11154;48.558;9.234;2023-05-02T07:35:16;5.00;;;4.50;;
21979;SDS011;11154;48.558;9.234;2023-05-02T07:37:17;5.95;;;4.72;;
21979;SDS011;11154;48.558;9.234;2023-05-02T07:39:19;5.07;;;4.57;;
21979;SDS011;11154;48.558;9.234;2023-05-02T07:41:21;7.50;;;4.80;;
21979;SDS011;11154;48.558;9.234;2023-05-02T07:43:22;5.55;;;4.57;;
21979;SDS011;11154;48.558;9.234;2023-05-02T07:45:25;9.05;;;5.70;;
21979;SDS011;11154;48.558;9.234;2023-05-02T07:47:27;9.40;;;5.05;;
21979;SDS011;11154;48.558;9.234;2023-05-02T07:49:28;7.35;;;5.32;;
21979;SDS011;11154;48.558;9.234;2023-05-02T07:51:30;7.97;;;5.80;;
21979;SDS011;11154;48.558;9.234;2023-05-02T07:53:32;6.03;;;5.07;;
21979;SDS011;11154;48.558;9.234;2023-05-02T07:55:34;5.60;;;5.10;;
21979;SDS011;11154;48.558;9.234;2023-05-02T07:57:36;5.82;;;5.18;;
21979;SDS011;11154;48.558;9.234;2023-05-02T07:59:37;7.43;;;5.35;;
21979;SDS011;11154;48.558;9.234;2023-05-02T08:01:41;7.13;;;5.95;;
21979;SDS011;11154;48.558;9.234;2023-05-02T08:03:43;6.00;;;5.40;;
21979;SDS011;11154;48.558;9.234;2023-05-02T08:05:45;6.72;;;5.70;;
21979;SDS011;11154;48.558;9.234;2023-05-02T08:07:47;7.22;;;5.43;;
21979;SDS011;11154;48.558;9.234;2023-05-02T08:09:48;6.63;;;5.07;;
21979;SDS011;11154;48.558;9.234;2023-05-02T08:11:50;9.45;;;5.55;;
21979;SDS011;11154;48.558;9.234;2023-05-02T08:13:52;7.68;;;5.47;;
21979;SDS011;11154;48.558;9.234;2023-05-02T08:15:54;7.18;;;5.25;;
21979;SDS011;11154;48.558;9.234;2023-05-02T08:17:58;7.78;;;5.90;;
21979;SDS011;11154;48.558;9.234;2023-05-02T08:20:00;9.00;;;5.88;;
21979;SDS011;11154;48.558;9.234;2023-05-02T08:22:02;7.70;;;5.85;;
21979;SDS011;11154;48.558;9.234;2023-05-02T08:24:04;6.68;;;5.80;;
21979;SDS011;11154;48.558;9.234;2023-05-02T08:26:05;6.30;;;5.70;;
21979;SDS011;11154;48.558;9.234;2023-05-02T08:28:07;6.15;;;5.55;;
21979;SDS011;11154;48.558;9.234;2023-05-02T08:30:09;7.38;;;5.40;;
21979;SDS011;11154;48.558;9.234;2023-05-02T08:32:11;5.88;;;5.28;;
21979;SDS011;11154;48.558;9.234;2023-05-02T08:34:15;6.28;;;5.43;;
21979;SDS011;11154;48.558;9.234;2023-05-02T08:36:17;6.30;;;5.70;;
21979;SDS011;11154;48.558;9.234;2023-05-02T08:38:19;8.32;;;6.60;;
21979;SDS011;11154;48.558;9.234;2023-05-02T08:40:21;6.97;;;6.28;;
21979;SDS011;11154;48.558;9.234;2023-05-02T08:42:24;7.03;;;5.70;;
21979;SDS011;11154;48.558;9.234;2023-05-02T08:44:27;6.07;;;5.47;;
21979;SDS011;11154;48.558;9.234;2023-05-02T08:46:29;6.40;;;5.78;;
21979;SDS011;11154;48.558;9.234;2023-05-02T08:48:32;7.65;;;6.25;;
21979;SDS011;11154;48.558;9.234;2023-05-02T08:50:37;7.18;;;5.93;;
21979;SDS011;11154;48.558;9.234;2023-05-02T08:52:40;6.82;;;5.97;;
21979;SDS011;11154;48.558;9.234;2023-05-02T08:54:43;7.95;;;6.10;;
21979;SDS011;11154;48.558;9.234;2023-05-02T08:56:45;7.72;;;6.82;;
21979;SDS011;11154;48.558;9.234;2023-05-02T08:58:48;10.85;;;6.80;;
21979;SDS011;11154;48.558;9.234;2023-05-02T09:00:50;8.25;;;7.45;;
21979;SDS011;11154;48.558;9.234;2023-05-02T09:02:57;8.73;;;7.40;;
21979;SDS011;11154;48.558;9.234;2023-05-02T09:05:07;8.00;;;7.20;;
21979;SDS011;11154;48.558;9.234;2023-05-02T09:07:13;9.40;;;7.55;;
21979;SDS011;11154;48.558;9.234;2023-05-02T09:09:15;9.52;;;7.00;;
21979;SDS011;11154;48.558;9.234;2023-05-02T09:11:17;13.88;;;8.48;;
21979;SDS011;11154;48.558;9.234;2023-05-02T09:13:33;10.73;;;8.00;;
21979;SDS011;11154;48.558;9.234;2023-05-02T09:15:36;9.60;;;8.60;;
21979;SDS011;11154;48.558;9.234;2023-05-02T09:17:38;10.35;;;7.70;;
21979;SDS011;11154;48.558;9.234;2023-05-02T09:19:43;8.70;;;7.80;;
21979;SDS011;11154;48.558;9.234;2023-05-02T09:21:45;11.07;;;8.25;;
21979;SDS011;11154;48.558;9.234;2023-05-02T09:23:49;11.60;;;8.55;;
21979;SDS011;11154;48.558;9.234;2023-05-02T09:25:51;9.57;;;8.52;;
21979;SDS011;11154;48.558;9.234;2023-05-02T09:27:53;10.93;;;8.73;;
21979;SDS011;11154;48.558;9.234;2023-05-02T09:32:19;13.48;;;11.02;;
21979;SDS011;11154;48.558;9.234;2023-05-02T09:34:20;12.25;;;10.98;;
21979;SDS011;11154;48.558;9.234;2023-05-02T09:36:22;11.70;;;10.43;;
21979;SDS011;11154;48.558;9.234;2023-05-02T09:38:24;14.63;;;10.50;;
21979;SDS011;11154;48.558;9.234;2023-05-02T09:40:27;11.55;;;9.85;;
21979;SDS011;11154;48.558;9.234;2023-05-02T09:42:29;12.52;;;10.52;;
21979;SDS011;11154;48.558;9.234;2023-05-02T09:44:35;16.83;;;11.18;;
21979;SDS011;11154;48.558;9.234;2023-05-02T09:46:38;11.25;;;10.02;;
21979;SDS011;11154;48.558;9.234;2023-05-02T09:48:50;13.38;;;10.40;;
21979;SDS011;11154;48.558;9.234;2023-05-02T09:50:53;13.23;;;10.75;;
21979;SDS011;11154;48.558;9.234;2023-05-02T09:53:01;12.02;;;10.57;;
21979;SDS011;11154;48.558;9.234;2023-05-02T09:55:13;12.52;;;11.23;;
21979;SDS011;11154;48.558;9.234;2023-05-02T09:57:22;13.45;;;10.60;;
21979;SDS011;11154;48.558;9.234;2023-05-02T09:59:39;12.40;;;10.90;;
21979;SDS011;11154;48.558;9.234;2023-05-02T10:01:41;11.88;;;10.68;;
21979;SDS011;11154;48.558;9.234;2023-05-02T10:03:45;12.45;;;10.65;;
21979;SDS011;11154;48.558;9.234;2023-05-02T10:05:47;14.93;;;10.52;;
21979;SDS011;11154;48.558;9.234;2023-05-02T10:07:50;13.35;;;10.57;;
21979;SDS011;11154;48.558;9.234;2023-05-02T10:09:52;11.93;;;10.43;;
21979;SDS011;11154;48.558;9.234;2023-05-02T10:11:55;12.00;;;10.40;;
21979;SDS011;11154;48.558;9.234;2023-05-02T10:13:58;12.68;;;11.15;;
21979;SDS011;11154;48.558;9.234;2023-05-02T10:16:00;13.85;;;12.20;;
21979;SDS011;11154;48.558;9.234;2023-05-02T10:18:07;12.23;;;10.93;;
21979;SDS011;11154;48.558;9.234;2023-05-02T10:20:15;17.70;;;11.38;;
21979;SDS011;11154;48.558;9.234;2023-05-02T10:22:22;13.80;;;10.53;;
21979;SDS011;11154;48.558;9.234;2023-05-02T10:24:25;12.93;;;10.48;;
21979;SDS011;11154;48.558;9.234;2023-05-02T10:26:28;13.02;;;11.38;;
21979;SDS011;11154;48.558;9.234;2023-05-02T10:28:31;12.38;;;10.30;;
21979;SDS011;11154;48.558;9.234;2023-05-02T10:30:34;12.63;;;10.70;;
21979;SDS011;11154;48.558;9.234;2023-05-02T10:32:36;13.02;;;10.35;;
21979;SDS011;11154;48.558;9.234;2023-05-02T10:34:39;13.07;;;10.35;;
21979;SDS011;11154;48.558;9.234;2023-05-02T10:36:42;13.40;;;10.63;;
21979;SDS011;11154;48.558;9.234;2023-05-02T10:38:43;14.82;;;10.93;;
21979;SDS011;11154;48.558;9.234;2023-05-02T10:40:48;11.50;;;10.07;;
21979;SDS011;11154;48.558;9.234;2023-05-02T10:42:55;11.82;;;10.45;;
21979;SDS011;11154;48.558;9.234;2023-05-02T10:44:58;11.82;;;10.63;;
21979;SDS011;11154;48.558;9.234;2023-05-02T10:47:01;11.73;;;9.95;;
21979;SDS011;11154;48.558;9.234;2023-05-02T10:49:19;12.93;;;10.85;;
21979;SDS011;11154;48.558;9.234;2023-05-02T10:51:26;11.55;;;10.23;;
21979;SDS011;11154;48.558;9.234;2023-05-02T10:53:29;11.57;;;9.70;;
21979;SDS011;11154;48.558;9.234;2023-05-02T10:55:32;14.57;;;10.77;;
21979;SDS011;11154;48.558;9.234;2023-05-02T10:57:34;12.77;;;10.20;;
21979;SDS011;11154;48.558;9.234;2023-05-02T10:59:36;14.93;;;10.90;;
21979;SDS011;11154;48.558;9.234;2023-05-02T11:01:38;13.70;;;10.43;;
21979;SDS011;11154;48.558;9.234;2023-05-02T11:03:56;12.52;;;10.55;;
21979;SDS011;11154;48.558;9.234;2023-05-02T11:06:04;13.70;;;9.98;;
21979;SDS011;11154;48.558;9.234;2023-05-02T11:10:30;11.88;;;8.85;;
21979;SDS011;11154;48.558;9.234;2023-05-02T11:12:42;11.32;;;9.95;;
21979;SDS011;11154;48.558;9.234;2023-05-02T11:14:45;12.35;;;9.45;;
21979;SDS011;11154;48.558;9.234;2023-05-02T11:17:05;11.45;;;9.20;;
21979;SDS011;11154;48.558;9.234;2023-05-02T11:19:09;11.45;;;10.25;;
21979;SDS011;11154;48.558;9.234;2023-05-02T11:21:24;15.82;;;9.73;;
21979;SDS011;11154;48.558;9.234;2023-05-02T11:23:27;11.57;;;10.15;;
21979;SDS011;11154;48.558;9.234;2023-05-02T11:25:30;10.77;;;9.68;;
21979;SDS011;11154;48.558;9.234;2023-05-02T11:27:36;11.77;;;9.93;;
21979;SDS011;11154;48.558;9.234;2023-05-02T11:32:01;11.52;;;10.23;;
21979;SDS011;11154;48.558;9.234;2023-05-02T11:34:04;13.05;;;10.90;;
21979;SDS011;11154;48.558;9.234;2023-05-02T11:36:07;13.50;;;10.10;;
21979;SDS011;11154;48.558;9.234;2023-05-02T11:38:09;12.05;;;9.45;;
21979;SDS011;11154;48.558;9.234;2023-05-02T11:40:12;10.88;;;9.77;;
21979;SDS011;11154;48.558;9.234;2023-05-02T11:46:58;13.13;;;9.82;;
21979;SDS011;11154;48.558;9.234;2023-05-02T11:49:01;11.30;;;9.93;;
21979;SDS011;11154;48.558;9.234;2023-05-02T11:51:03;13.18;;;10.55;;
21979;SDS011;11154;48.558;9.234;2023-05-02T11:53:10;13.32;;;10.23;;
21979;SDS011;11154;48.558;9.234;2023-05-02T12:04:03;11.27;;;10.07;;
21979;SDS011;11154;48.558;9.234;2023-05-02T12:06:09;14.77;;;10.13;;
21979;SDS011;11154;48.558;9.234;2023-05-02T12:08:18;15.82;;;9.90;;
21979;SDS011;11154;48.558;9.234;2023-05-02T12:10:24;14.57;;;10.43;;
21979;SDS011;11154;48.558;9.234;2023-05-02T12:12:36;15.32;;;11.07;;
21979;SDS011;11154;48.558;9.234;2023-05-02T12:14:38;14.02;;;10.55;;
21979;SDS011;11154;48.558;9.234;2023-05-02T12:16:40;12.57;;;9.43;;
21979;SDS011;11154;48.558;9.234;2023-05-02T12:18:42;12.93;;;10.15;;
21979;SDS011;11154;48.558;9.234;2023-05-02T12:20:44;11.93;;;10.65;;
21979;SDS011;11154;48.558;9.234;2023-05-02T12:22:46;12.55;;;9.88;;
21979;SDS011;11154;48.558;9.234;2023-05-02T12:24:50;11.07;;;9.80;;
21979;SDS011;11154;48.558;9.234;2023-05-02T12:27:07;14.90;;;9.82;;
21979;SDS011;11154;48.558;9.234;2023-05-02T12:29:09;12.93;;;10.60;;
21979;SDS011;11154;48.558;9.234;2023-05-02T12:31:11;12.25;;;9.23;;
21979;SDS011;11154;48.558;9.234;2023-05-02T12:33:13;14.82;;;9.68;;
21979;SDS011;11154;48.558;9.234;2023-05-02T12:35:20;12.65;;;9.75;;
21979;SDS011;11154;48.558;9.234;2023-05-02T12:37:23;12.63;;;9.20;;
21979;SDS011;11154;48.558;9.234;2023-05-02T12:39:35;11.00;;;9.43;;
21979;SDS011;11154;48.558;9.234;2023-05-02T12:41:39;13.90;;;10.15;;